createdAt,value
2022-10-30T05:00:31.698Z,15.86
2022-10-30T05:05:31.620Z,15.97
2022-10-30T05:10:31.549Z,15.99
2022-10-30T05:15:38.582Z,16.24
2022-10-30T05:20:31.449Z,16.23
2022-10-30T05:25:31.394Z,16.00
2022-10-30T05:30:31.340Z,15.86
2022-10-30T05:35:31.305Z,15.88
2022-10-30T05:40:31.234Z,15.94
2022-10-30T05:45:31.165Z,15.90
2022-10-30T05:50:31.119Z,15.84
2022-10-30T05:55:31.082Z,15.84
2022-10-30T06:00:31.008Z,15.74
2022-10-30T06:05:30.957Z,16.00
2022-10-30T06:10:30.893Z,15.89
2022-10-30T06:15:30.875Z,15.73
2022-10-30T06:20:30.778Z,15.64
2022-10-30T06:25:31.117Z,15.66
2022-10-30T06:30:30.700Z,15.85
2022-10-30T06:35:30.643Z,16.01
2022-10-30T06:40:30.564Z,15.89
2022-10-30T06:45:30.509Z,15.89
2022-10-30T06:50:30.455Z,16.02
2022-10-30T06:55:30.398Z,15.98
2022-10-30T07:00:30.411Z,16.59
2022-10-30T07:05:30.289Z,17.48
2022-10-30T07:10:30.233Z,17.82
2022-10-30T07:15:30.249Z,18.22
2022-10-30T07:20:30.306Z,18.60
2022-10-30T07:25:30.065Z,18.84
2022-10-30T07:30:29.995Z,19.01
2022-10-30T07:35:29.967Z,18.87
2022-10-30T07:40:29.905Z,18.91
2022-10-30T07:45:29.845Z,18.60
2022-10-30T07:50:29.789Z,18.64
2022-10-30T07:55:29.754Z,18.56
2022-10-30T08:00:29.697Z,18.59
2022-10-30T08:05:30.385Z,18.87
2022-10-30T08:10:29.566Z,19.55
2022-10-30T08:15:29.534Z,20.65
2022-10-30T08:20:29.455Z,21.12
2022-10-30T08:25:29.403Z,21.31
2022-10-30T08:30:29.347Z,20.87
2022-10-30T08:35:29.361Z,20.38
2022-10-30T08:40:29.245Z,20.11
2022-10-30T08:45:31.240Z,20.17
2022-10-30T08:50:29.127Z,20.12
2022-10-30T08:55:29.113Z,20.11
2022-10-30T09:00:29.055Z,20.19
2022-10-30T09:05:28.974Z,20.30
2022-10-30T09:10:28.927Z,20.46
2022-10-30T09:15:28.887Z,20.47
2022-10-30T09:20:28.816Z,20.87
2022-10-30T09:25:28.761Z,20.99
2022-10-30T09:30:28.706Z,21.17
2022-10-30T09:35:28.675Z,21.44
2022-10-30T09:40:28.582Z,21.28
2022-10-30T09:45:29.958Z,21.42
2022-10-30T09:50:28.484Z,21.47
2022-10-30T09:55:28.449Z,21.89
2022-10-30T10:00:28.374Z,21.75
2022-10-30T10:05:28.317Z,21.48
2022-10-30T10:10:28.259Z,21.70
2022-10-30T10:15:28.230Z,21.60
2022-10-30T10:20:28.150Z,21.64
2022-10-30T10:25:28.091Z,21.71
2022-10-30T10:30:28.043Z,21.78
2022-10-30T10:35:27.998Z,21.97
2022-10-30T10:40:27.930Z,22.37
2022-10-30T10:45:27.856Z,22.38
2022-10-30T10:50:27.811Z,22.57
2022-10-30T10:55:27.780Z,22.18
2022-10-30T11:00:27.707Z,22.28
2022-10-30T11:05:27.650Z,22.54
2022-10-30T11:10:27.602Z,22.52
2022-10-30T11:15:34.604Z,22.75
2022-10-30T11:20:27.490Z,22.61
2022-10-30T11:25:31.176Z,22.39
2022-10-30T11:30:27.385Z,22.57
2022-10-30T11:35:27.348Z,22.68
2022-10-30T11:40:27.275Z,22.78
2022-10-30T11:45:27.220Z,22.81
2022-10-30T11:50:27.169Z,22.90
2022-10-30T11:55:27.128Z,23.04
2022-10-30T12:00:27.056Z,23.39
2022-10-30T12:05:27.003Z,23.54
2022-10-30T12:10:26.958Z,23.55
2022-10-30T12:15:26.907Z,23.57
2022-10-30T12:20:26.845Z,23.49
2022-10-30T12:25:26.791Z,23.23
2022-10-30T12:30:26.735Z,23.36
2022-10-30T12:35:26.704Z,23.53
2022-10-30T12:40:26.630Z,23.62
2022-10-30T12:45:26.595Z,23.69
2022-10-30T12:50:26.524Z,23.67
2022-10-30T12:55:26.477Z,23.62
2022-10-30T13:00:26.411Z,23.63
2022-10-30T13:05:26.357Z,23.54
2022-10-30T13:10:26.305Z,23.49
2022-10-30T13:15:26.372Z,23.53
2022-10-30T13:20:26.200Z,23.50
2022-10-30T13:25:26.142Z,23.64
2022-10-30T13:30:26.090Z,23.56
2022-10-30T13:35:26.050Z,23.33
2022-10-30T13:40:25.986Z,23.32
2022-10-30T13:45:25.911Z,23.24
2022-10-30T13:50:25.867Z,23.29
2022-10-30T13:55:25.834Z,23.52
2022-10-30T14:00:25.761Z,23.59
2022-10-30T14:05:25.705Z,23.53
2022-10-30T14:10:25.661Z,23.45
2022-10-30T14:15:25.615Z,23.35
2022-10-30T14:20:25.542Z,23.37
2022-10-30T14:25:25.498Z,23.36
2022-10-30T14:30:25.418Z,23.09
2022-10-30T14:35:25.397Z,22.96
2022-10-30T14:40:25.329Z,22.66
2022-10-30T14:45:25.270Z,22.41
2022-10-30T14:50:25.213Z,22.27
2022-10-30T14:55:25.181Z,22.32
2022-10-30T15:00:25.101Z,22.25
2022-10-30T15:05:25.092Z,22.08
2022-10-30T15:10:24.977Z,21.94
2022-10-30T15:15:24.958Z,21.92
2022-10-30T15:20:24.881Z,21.88
2022-10-30T15:25:24.834Z,21.63
2022-10-30T15:30:24.773Z,21.70
2022-10-30T15:35:24.742Z,21.70
2022-10-30T15:40:24.667Z,21.41
2022-10-30T15:45:24.614Z,21.33
2022-10-30T15:50:24.544Z,21.21
2022-10-30T15:55:24.532Z,20.99
2022-10-30T16:00:24.486Z,20.85
2022-10-30T16:05:24.401Z,20.70
2022-10-30T16:10:24.345Z,20.49
2022-10-30T16:15:24.313Z,20.23
2022-10-30T16:20:24.244Z,20.02
2022-10-30T16:25:24.187Z,20.01
2022-10-30T16:30:24.129Z,19.75
2022-10-30T16:35:24.098Z,19.65
2022-10-30T16:40:24.027Z,19.48
2022-10-30T16:45:24.100Z,19.41
2022-10-30T16:50:23.916Z,19.34
2022-10-30T16:55:23.880Z,19.12
2022-10-30T17:00:26.996Z,19.05
2022-10-30T17:05:23.751Z,18.99
2022-10-30T17:10:23.697Z,18.92
2022-10-30T17:15:23.786Z,18.73
2022-10-30T17:20:31.411Z,18.62
2022-10-30T17:25:23.543Z,18.54
2022-10-30T17:30:23.483Z,18.45
2022-10-30T17:35:23.438Z,18.48
2022-10-30T17:40:23.365Z,18.57
2022-10-30T17:45:23.318Z,18.48
2022-10-30T17:50:23.260Z,18.46
2022-10-30T17:55:23.232Z,18.38
2022-10-30T18:00:23.165Z,18.33
2022-10-30T18:05:23.097Z,18.27
2022-10-30T18:10:23.039Z,18.37
2022-10-30T18:15:23.002Z,18.32
2022-10-30T18:20:22.932Z,18.09
2022-10-30T18:25:22.880Z,17.81
2022-10-30T18:30:22.820Z,17.63
2022-10-30T18:35:43.779Z,17.49
2022-10-30T18:40:22.904Z,17.32
2022-10-30T18:45:22.653Z,17.20
2022-10-30T18:50:22.601Z,17.17
2022-10-30T18:55:22.563Z,17.28
2022-10-30T19:00:22.485Z,17.34
2022-10-30T19:05:22.433Z,17.30
2022-10-30T19:10:22.380Z,17.26
2022-10-30T19:15:22.354Z,17.26
2022-10-30T19:20:28.255Z,17.32
2022-10-30T19:25:23.226Z,17.45
2022-10-30T19:30:22.169Z,17.51
2022-10-30T19:35:22.126Z,17.48
2022-10-30T19:40:22.050Z,17.48
2022-10-30T19:45:21.994Z,17.31
2022-10-30T19:50:21.941Z,17.12
2022-10-30T19:55:21.907Z,16.97
2022-10-30T20:00:21.829Z,16.80
2022-10-30T20:05:21.776Z,16.72
2022-10-30T20:10:21.717Z,16.68
2022-10-30T20:15:21.686Z,16.62
2022-10-30T20:20:21.611Z,16.57
2022-10-30T20:25:21.556Z,16.57
2022-10-30T20:30:21.502Z,16.54
2022-10-30T20:35:21.468Z,16.56
2022-10-30T20:40:21.399Z,16.59
2022-10-30T20:45:21.323Z,16.62
2022-10-30T20:50:21.286Z,16.53
2022-10-30T20:55:21.308Z,16.46
2022-10-30T21:00:21.184Z,16.43
2022-10-30T21:05:42.632Z,16.37
2022-10-30T21:10:25.439Z,16.27
2022-10-30T21:15:22.028Z,16.16
2022-10-30T21:20:20.954Z,16.06
2022-10-30T21:25:20.895Z,16.01
2022-10-30T21:30:20.850Z,15.96
2022-10-30T21:35:20.821Z,15.82
2022-10-30T21:40:20.737Z,15.81
2022-10-30T21:45:20.681Z,15.72
2022-10-30T21:50:20.711Z,15.74
2022-10-30T21:55:20.662Z,15.70
2022-10-30T22:00:20.517Z,15.52
2022-10-30T22:05:20.457Z,15.41
2022-10-30T22:10:20.409Z,15.38
2022-10-30T22:15:20.465Z,15.20
2022-10-30T22:20:20.297Z,15.09
2022-10-30T22:25:20.242Z,15.15
2022-10-30T22:30:20.195Z,15.26
2022-10-30T22:35:20.164Z,15.34
2022-10-30T22:40:20.080Z,15.34
2022-10-30T22:45:20.027Z,15.37
2022-10-30T22:50:19.965Z,15.40
2022-10-30T22:55:19.939Z,15.37
2022-10-30T23:00:19.860Z,15.37
2022-10-30T23:05:19.803Z,15.29
2022-10-30T23:10:19.768Z,15.19
2022-10-30T23:15:19.715Z,15.10
2022-10-30T23:20:19.639Z,15.08
2022-10-30T23:25:19.580Z,15.06
2022-10-30T23:30:19.527Z,14.97
2022-10-30T23:35:19.493Z,14.97
2022-10-30T23:40:19.413Z,15.09
2022-10-30T23:45:19.356Z,15.20
2022-10-30T23:50:19.300Z,15.26
2022-10-30T23:55:19.266Z,15.24
